Whiteclay, Nebraska
Current Conditions -  °F | °C
As of 6:52 AM on Wednesday 22 Oct 2014 (Local Time) from KIEN Reporting Station
Few Clouds Few Clouds  
Wind Chill: 52°   Ceiling: Unl
Heat Index: 52°   Visibility: 10mi
Dew Point: 50°   Wind: 6mph
Humidity: 93%   Direction: 190°S
Pressure: 29.94"   Gusts: NA
Location:  43°N, 102.56°W
Report Text: KIEN 221252Z AUTO 19005KT 10SM FEW095 11/10 A2994 RMK AO2 RAE26 SLP121 P0000 T01110100
Loading
Personal Weather Stations






























Interactive Weather Map
Tropical Storm Tracking
New forecast layout! Learn more

10-Day Weather Forecast

Advertisements
Track Severe Weather on mobile